Time;durP1;ratioP1;P1;durP2;ratioP2;P2;SDS_P1;SDS_P2;PMS_P1;PMS_P2;Temp;Humidity;BMP_temperature;BMP_pressure;BME280_temperature;BME280_humidity;BME280_pressure;Samples;Min_cycle;Max_cycle;Signal;HPM_P1;HPM_P2
2024/04/03 00:01:04;;;;;;;3.95;1.10;;;;;;;13.26;85.22;100142.78;5030832;28;20064;-55
2024/04/03 00:03:31;;;;;;;4.15;1.20;;;;;;;13.07;86.25;100128.69;5047570;28;20081;-57
2024/04/03 00:05:57;;;;;;;4.90;1.25;;;;;;;13.17;86.82;100134.59;5032306;28;20080;-60
2024/04/03 00:08:23;;;;;;;6.15;1.38;;;;;;;13.10;86.68;100126.06;5048845;28;20060;-58
2024/04/03 00:10:50;;;;;;;2.88;1.00;;;;;;;13.29;86.46;100126.28;5058936;28;20056;-57
2024/04/03 00:13:16;;;;;;;4.28;1.10;;;;;;;13.24;86.38;100126.53;5068669;28;20049;-58
2024/04/03 00:15:43;;;;;;;6.78;1.50;;;;;;;13.22;86.58;100119.72;5068316;28;20491;-59
2024/04/03 00:18:09;;;;;;;3.83;1.02;;;;;;;13.21;86.97;100118.13;5067665;28;20120;-57
2024/04/03 00:20:37;;;;;;;3.17;1.10;;;;;;;13.03;87.40;100120.28;5050940;28;20068;-57
2024/04/03 00:23:03;;;;;;;5.43;1.13;;;;;;;12.93;88.46;100117.94;5068417;28;20071;-58
2024/04/03 00:25:30;;;;;;;2.92;1.17;;;;;;;12.97;88.73;100118.84;5068272;28;20048;-65
2024/04/03 00:27:56;;;;;;;3.72;1.08;;;;;;;13.00;88.53;100115.41;5068819;28;20044;-64
2024/04/03 00:30:22;;;;;;;4.43;1.27;;;;;;;13.06;88.50;100111.28;5050813;28;20067;-64
2024/04/03 00:32:49;;;;;;;4.10;1.08;;;;;;;12.87;89.14;100105.47;5068118;28;20507;-65
2024/04/03 00:35:15;;;;;;;4.18;1.27;;;;;;;12.87;88.98;100107.44;5066883;28;20068;-65
2024/04/03 00:37:42;;;;;;;2.90;0.98;;;;;;;13.04;88.16;100110.84;5058354;28;20500;-64
2024/04/03 00:40:09;;;;;;;3.13;1.00;;;;;;;12.90;88.57;100104.00;5066642;28;20845;-64
2024/04/03 00:42:35;;;;;;;4.90;1.40;;;;;;;12.91;88.83;100092.59;5049455;28;20056;-64
2024/04/03 00:45:02;;;;;;;3.00;1.10;;;;;;;12.71;89.68;100092.69;5051317;28;20056;-64
2024/04/03 00:47:28;;;;;;;2.20;0.95;;;;;;;12.66;90.50;100087.38;5068163;28;20055;-66
2024/04/03 00:49:56;;;;;;;3.97;1.13;;;;;;;12.80;90.21;100079.56;5067680;28;20682;-65
2024/04/03 00:52:22;;;;;;;2.28;0.90;;;;;;;12.77;90.47;100081.06;5068312;28;20052;-64
2024/04/03 00:54:48;;;;;;;3.75;1.10;;;;;;;12.74;91.33;100073.47;5051381;28;20064;-64
2024/04/03 00:57:14;;;;;;;2.97;0.90;;;;;;;12.81;90.96;100070.13;5068124;28;20048;-64
2024/04/03 00:59:42;;;;;;;3.80;1.10;;;;;;;12.60;91.58;100072.97;5050894;28;20060;-64
2024/04/03 01:02:09;;;;;;;3.53;1.02;;;;;;;12.51;93.08;100058.44;5067750;28;20052;-64
2024/04/03 01:04:36;;;;;;;2.58;1.00;;;;;;;12.64;93.16;100064.81;5051230;28;20048;-64
2024/04/03 01:07:08;;;;;;;2.75;1.10;;;;;;;12.75;92.94;100057.69;5068035;28;20057;-65
2024/04/03 01:09:36;;;;;;;2.78;1.10;;;;;;;12.65;93.88;100058.94;5050913;28;20672;-64
2024/04/03 01:12:03;;;;;;;5.78;1.45;;;;;;;12.45;94.89;100063.38;5067638;28;20052;-64
2024/04/03 01:14:29;;;;;;;4.53;1.35;;;;;;;12.46;95.53;100053.16;5067416;28;20060;-64
2024/04/03 01:16:56;;;;;;;6.63;1.10;;;;;;;12.35;96.40;100052.78;5050711;28;20056;-64
2024/04/03 01:19:23;;;;;;;5.40;1.35;;;;;;;12.48;96.85;100050.03;5067269;28;20057;-65
2024/04/03 01:21:49;;;;;;;3.50;1.05;;;;;;;12.51;96.43;100052.13;5067286;28;20090;-64
2024/04/03 01:24:20;;;;;;;3.08;1.30;;;;;;;12.84;95.92;100048.13;5067380;28;20055;-64
2024/04/03 01:26:47;;;;;;;3.72;1.02;;;;;;;12.50;97.24;100045.78;5067781;28;20071;-64
2024/04/03 01:29:13;;;;;;;5.82;1.23;;;;;;;12.46;97.61;100044.88;5067060;28;20044;-64
2024/04/03 01:31:40;;;;;;;4.03;1.05;;;;;;;12.49;98.46;100035.88;5052354;28;20408;-65
2024/04/03 01:34:06;;;;;;;2.83;1.08;;;;;;;12.49;99.01;100035.88;5052050;28;20498;-65
2024/04/03 01:36:33;;;;;;;6.72;1.42;;;;;;;12.48;98.97;100027.94;5046886;28;20052;-64
2024/04/03 01:38:59;;;;;;;3.65;1.02;;;;;;;12.55;98.94;100034.53;5048490;28;20045;-64
2024/04/03 01:41:27;;;;;;;4.85;1.48;;;;;;;12.34;99.81;100019.97;5050304;28;20052;-64
2024/04/03 01:43:53;;;;;;;4.30;1.38;;;;;;;12.36;100.00;100021.25;5066926;28;20055;-63
2024/04/03 01:46:19;;;;;;;5.25;1.30;;;;;;;12.20;100.00;100028.56;5066882;28;20060;-64
2024/04/03 01:48:46;;;;;;;4.80;1.20;;;;;;;12.29;100.00;100009.94;5044405;28;20060;-64
2024/04/03 01:51:12;;;;;;;7.03;1.52;;;;;;;12.35;100.00;100013.31;5046674;28;20951;-64
2024/04/03 01:53:39;;;;;;;4.47;1.40;;;;;;;12.33;100.00;100007.31;5046688;28;20059;-64
2024/04/03 01:56:05;;;;;;;4.95;1.42;;;;;;;12.34;100.00;100001.44;5046919;28;20053;-65
2024/04/03 01:58:32;;;;;;;5.25;1.45;;;;;;;12.31;100.00;100001.31;5046734;28;20056;-64
2024/04/03 02:00:58;;;;;;;4.43;1.50;;;;;;;12.28;100.00;100002.81;5058793;28;20063;-65
2024/04/03 02:03:24;;;;;;;6.35;1.40;;;;;;;12.21;100.00;99994.28;5066894;28;20071;-65
2024/04/03 02:05:51;;;;;;;7.45;1.65;;;;;;;12.09;100.00;99993.44;5049980;28;20435;-64
2024/04/03 02:08:17;;;;;;;5.22;1.50;;;;;;;12.30;100.00;99992.25;5066804;28;20522;-64
2024/04/03 02:10:44;;;;;;;3.72;1.20;;;;;;;12.25;100.00;99988.91;5066433;28;20048;-64
2024/04/03 02:13:10;;;;;;;5.40;1.50;;;;;;;12.29;100.00;99984.31;5066571;28;20048;-63
2024/04/03 02:15:37;;;;;;;5.80;1.40;;;;;;;12.41;100.00;99974.06;5066302;28;20060;-63
2024/04/03 02:18:04;;;;;;;3.72;1.58;;;;;;;12.45;100.00;99983.28;5049867;28;20059;-64
2024/04/03 02:20:33;;;;;;;3.75;1.30;;;;;;;12.40;100.00;99975.22;5066168;28;20060;-65
2024/04/03 02:22:59;;;;;;;2.28;0.90;;;;;;;12.24;100.00;99979.78;5066778;28;20463;-64
2024/04/03 02:25:26;;;;;;;4.90;1.20;;;;;;;12.31;100.00;99971.75;5059613;28;20056;-65
2024/04/03 02:27:52;;;;;;;5.78;1.10;;;;;;;12.39;100.00;99967.28;5046507;28;20052;-64
2024/04/03 02:30:18;;;;;;;3.03;1.00;;;;;;;12.48;100.00;99973.50;5050148;28;20064;-64
2024/04/03 02:32:47;;;;;;;4.22;1.30;;;;;;;12.36;100.00;99965.22;5046816;28;20061;-64
2024/04/03 02:35:14;;;;;;;3.63;1.30;;;;;;;12.19;100.00;99966.22;5064498;28;20056;-63
2024/04/03 02:37:40;;;;;;;4.60;1.33;;;;;;;12.24;100.00;99965.19;5066375;28;20500;-64
2024/04/03 02:40:07;;;;;;;5.22;1.48;;;;;;;12.27;100.00;99959.78;5066566;28;20056;-64
2024/04/03 02:42:33;;;;;;;2.95;1.27;;;;;;;12.27;100.00;99957.00;5068627;28;20053;-64
2024/04/03 02:44:59;;;;;;;4.07;1.05;;;;;;;12.28;100.00;99958.66;5053591;28;20055;-64
2024/04/03 02:47:26;;;;;;;4.35;1.02;;;;;;;12.39;100.00;99951.53;5054018;28;20048;-64
2024/04/03 02:49:52;;;;;;;2.10;1.00;;;;;;;12.39;100.00;99946.00;5070566;28;20048;-64
2024/04/03 02:52:19;;;;;;;2.95;1.10;;;;;;;12.38;100.00;99944.38;5070764;28;20056;-63
2024/04/03 02:54:45;;;;;;;4.10;1.30;;;;;;;12.26;100.00;99941.59;5070524;28;20094;-64
2024/04/03 02:57:12;;;;;;;6.53;1.45;;;;;;;12.22;100.00;99940.66;5070329;28;20053;-63
2024/04/03 02:59:38;;;;;;;3.45;1.02;;;;;;;12.44;100.00;99950.50;5070039;28;20040;-64
2024/04/03 03:02:04;;;;;;;2.08;0.85;;;;;;;12.38;100.00;99938.03;5070125;28;20071;-64
2024/04/03 03:04:40;;;;;;;2.42;0.85;;;;;;;12.25;100.00;99940.00;5069887;28;20049;-64
2024/04/03 03:07:10;;;;;;;2.15;1.13;;;;;;;12.36;100.00;99935.63;5053555;28;20725;-64
2024/04/03 03:09:37;;;;;;;6.68;1.33;;;;;;;12.29;100.00;99929.88;5053430;28;20055;-64
2024/04/03 03:12:04;;;;;;;1.83;0.80;;;;;;;12.38;100.00;99936.09;5069935;28;20055;-65
2024/04/03 03:14:30;;;;;;;5.53;1.20;;;;;;;12.27;100.00;99934.91;5069717;28;20044;-65
2024/04/03 03:16:57;;;;;;;2.88;1.08;;;;;;;12.31;100.00;99927.56;5069707;28;20070;-64
2024/04/03 03:19:24;;;;;;;3.00;1.10;;;;;;;12.31;100.00;99935.84;5069723;28;20060;-63
2024/04/03 03:21:50;;;;;;;3.10;0.77;;;;;;;12.20;100.00;99933.91;5069864;28;20053;-63
2024/04/03 03:24:19;;;;;;;3.15;0.90;;;;;;;12.27;100.00;99936.91;5069532;28;20055;-67
2024/04/03 03:26:46;;;;;;;1.85;0.90;;;;;;;12.24;100.00;99924.56;5069368;28;20045;-64
2024/04/03 03:29:12;;;;;;;2.75;0.88;;;;;;;12.37;100.00;99920.69;5051148;28;20048;-65
2024/04/03 03:31:39;;;;;;;4.05;0.80;;;;;;;12.27;100.00;99914.81;5018996;28;20048;-64
2024/04/03 03:34:05;;;;;;;2.08;0.70;;;;;;;12.26;100.00;99904.91;5069448;28;20048;-65
2024/04/03 03:36:32;;;;;;;3.00;0.90;;;;;;;12.35;100.00;99908.34;5069474;28;20056;-64
2024/04/03 03:38:58;;;;;;;5.78;1.05;;;;;;;12.15;100.00;99909.28;5069542;28;20055;-64
2024/04/03 03:41:24;;;;;;;2.25;0.77;;;;;;;12.06;100.00;99911.31;5069387;28;20051;-64
2024/04/03 03:43:51;;;;;;;2.67;0.88;;;;;;;12.25;100.00;99906.88;5052569;28;20048;-64
2024/04/03 03:46:19;;;;;;;1.30;0.70;;;;;;;12.31;100.00;99904.66;5069229;28;20052;-65
2024/04/03 03:54:15;;;;;;;2.35;1.02;;;;;;;12.42;100.00;99901.13;5068861;28;20052;-65
2024/04/03 03:56:42;;;;;;;1.77;0.70;;;;;;;12.30;100.00;99895.59;5069127;28;20059;-65
2024/04/03 03:59:08;;;;;;;2.78;1.00;;;;;;;12.28;100.00;99903.41;5068894;28;20052;-64
2024/04/03 04:01:34;;;;;;;2.70;0.77;;;;;;;12.35;100.00;99900.88;5068991;28;20048;-64
2024/04/03 04:04:01;;;;;;;1.73;0.65;;;;;;;12.37;100.00;99898.59;5068856;28;20049;-64
2024/04/03 04:06:27;;;;;;;2.88;0.70;;;;;;;12.19;100.00;99890.84;5068871;28;20107;-64
2024/04/03 04:08:53;;;;;;;2.42;0.82;;;;;;;12.21;100.00;99888.56;5069031;28;20053;-64
2024/04/03 04:11:20;;;;;;;1.00;0.60;;;;;;;12.45;100.00;99891.31;5069215;28;20522;-58
2024/04/03 04:13:48;;;;;;;1.70;0.77;;;;;;;12.62;100.00;99891.09;5068456;28;20040;-58
2024/04/03 04:16:15;;;;;;;2.67;0.93;;;;;;;12.37;100.00;99886.72;5068913;28;20048;-59
2024/04/03 04:18:41;;;;;;;1.75;0.70;;;;;;;12.32;100.00;99881.44;5068353;28;20051;-59
2024/04/03 04:21:08;;;;;;;1.55;0.75;;;;;;;12.24;100.00;99874.88;5052145;28;20091;-56
2024/04/03 04:23:35;;;;;;;3.22;1.13;;;;;;;12.34;100.00;99879.16;5068439;28;20396;-53
2024/04/03 04:26:04;;;;;;;2.47;0.85;;;;;;;12.38;100.00;99878.09;5042742;28;20059;-57
2024/04/03 04:28:31;;;;;;;2.00;0.82;;;;;;;12.19;100.00;99871.53;5055904;28;20053;-57
2024/04/03 04:31:05;;;;;;;2.60;0.88;;;;;;;12.24;100.00;99872.13;5068506;28;20055;-57
2024/04/03 04:33:38;;;;;;;2.83;1.00;;;;;;;12.35;100.00;99875.22;5051929;28;20049;-59
2024/04/03 04:36:05;;;;;;;3.05;1.20;;;;;;;12.25;100.00;99865.47;5068278;28;20052;-60
2024/04/03 04:38:31;;;;;;;3.60;1.00;;;;;;;12.12;100.00;99863.81;5051210;28;20045;-56
2024/04/03 04:40:59;;;;;;;1.52;0.70;;;;;;;12.29;100.00;99860.06;5068069;28;20056;-58
2024/04/03 04:43:27;;;;;;;1.85;0.80;;;;;;;12.36;100.00;99860.28;5051421;28;20060;-59
2024/04/03 04:46:01;;;;;;;2.50;0.82;;;;;;;12.45;100.00;99867.28;5067854;28;20547;-57
2024/04/03 04:48:30;;;;;;;1.83;0.88;;;;;;;12.48;100.00;99862.22;5051522;28;20049;-59
2024/04/03 04:50:58;;;;;;;1.92;0.85;;;;;;;12.31;100.00;99861.28;5067608;28;20059;-57
2024/04/03 04:53:24;;;;;;;2.60;1.27;;;;;;;12.18;100.00;99867.97;5051378;28;20071;-60
2024/04/03 04:56:02;;;;;;;2.10;0.90;;;;;;;12.26;100.00;99860.72;5067908;28;20415;-59
2024/04/03 04:58:28;;;;;;;1.40;0.80;;;;;;;12.27;100.00;99862.34;5067866;28;20416;-58
2024/04/03 05:01:06;;;;;;;2.88;0.85;;;;;;;12.34;100.00;99862.56;5034856;28;20060;-59
2024/04/03 05:03:33;;;;;;;1.75;0.93;;;;;;;12.27;100.00;99856.81;5063856;28;20053;-59
2024/04/03 05:06:00;;;;;;;3.03;1.08;;;;;;;12.39;100.00;99862.34;5047069;28;20439;-57
2024/04/03 05:08:26;;;;;;;1.65;0.90;;;;;;;12.33;100.00;99855.44;5047354;28;20503;-56
2024/04/03 05:10:56;;;;;;;2.33;0.80;;;;;;;12.31;100.00;99858.53;5047959;28;20087;-57
2024/04/03 05:13:27;;;;;;;2.08;0.68;;;;;;;12.27;100.00;99862.34;5047901;28;20053;-58
2024/04/03 05:15:53;;;;;;;1.48;0.68;;;;;;;12.22;100.00;99860.59;5047060;28;20056;-60
2024/04/03 05:18:20;;;;;;;1.75;0.77;;;;;;;12.22;100.00;99862.56;5047489;28;20044;-58
2024/04/03 05:20:46;;;;;;;3.55;0.98;;;;;;;12.27;100.00;99868.66;5064817;28;20063;-57
2024/04/03 05:23:13;;;;;;;2.88;0.95;;;;;;;12.37;100.00;99859.13;5049007;28;20059;-59
2024/04/03 05:25:39;;;;;;;2.38;1.05;;;;;;;12.40;100.00;99867.50;5046393;28;20542;-57
2024/04/03 05:28:06;;;;;;;1.95;0.73;;;;;;;12.26;100.00;99856.00;5050880;28;20060;-58
2024/04/03 05:30:36;;;;;;;2.08;0.77;;;;;;;12.41;100.00;99860.81;5032712;28;20068;-64
2024/04/03 05:33:03;;;;;;;2.03;0.90;;;;;;;12.32;100.00;99865.69;5067109;28;20095;-58
2024/04/03 05:35:29;;;;;;;2.58;1.15;;;;;;;12.50;100.00;99865.44;5034157;28;20052;-58
2024/04/03 05:37:56;;;;;;;2.30;0.73;;;;;;;12.44;100.00;99868.44;5067308;28;20048;-64
2024/04/03 05:40:22;;;;;;;2.08;0.65;;;;;;;12.40;100.00;99861.19;5067135;28;20063;-59
2024/04/03 05:42:49;;;;;;;1.58;0.73;;;;;;;12.35;100.00;99864.19;5050659;28;20052;-65
2024/04/03 05:45:15;;;;;;;4.47;1.15;;;;;;;12.53;100.00;99865.56;5066552;28;20048;-64
2024/04/03 05:47:42;;;;;;;3.55;0.70;;;;;;;12.51;100.00;99864.28;5067014;28;20044;-65
2024/04/03 05:50:08;;;;;;;2.75;1.00;;;;;;;12.36;100.00;99863.81;5066575;28;20102;-64
2024/04/03 05:52:36;;;;;;;2.92;0.80;;;;;;;12.53;100.00;99870.25;5066867;28;20048;-64
2024/04/03 05:55:03;;;;;;;2.15;0.93;;;;;;;12.40;100.00;99867.50;5067295;28;20059;-64
2024/04/03 05:57:30;;;;;;;1.70;0.80;;;;;;;12.42;100.00;99865.22;5067825;28;20059;-65
2024/04/03 05:59:56;;;;;;;2.67;0.88;;;;;;;12.47;100.00;99872.44;5067058;28;20044;-65
2024/04/03 06:02:23;;;;;;;1.98;0.70;;;;;;;12.63;100.00;99864.25;5067777;28;20056;-65
2024/04/03 06:04:49;;;;;;;2.45;0.73;;;;;;;12.46;100.00;99866.13;5066479;28;20044;-58
2024/04/03 06:07:16;;;;;;;2.13;0.70;;;;;;;12.44;100.00;99873.16;5066872;28;20055;-56
2024/04/03 06:09:44;;;;;;;2.80;0.85;;;;;;;12.64;100.00;99871.41;5049514;28;20152;-60
2024/04/03 06:12:10;;;;;;;1.58;0.70;;;;;;;12.52;100.00;99872.22;5050469;28;20084;-60
2024/04/03 06:14:36;;;;;;;2.20;0.63;;;;;;;12.69;100.00;99871.19;5066170;28;20059;-59
2024/04/03 06:17:03;;;;;;;1.08;0.50;;;;;;;12.77;100.00;99868.28;5030144;28;20060;-59
2024/04/03 06:19:29;;;;;;;2.13;0.93;;;;;;;12.77;100.00;99867.47;5062908;28;20044;-58
2024/04/03 06:21:56;;;;;;;4.53;0.60;;;;;;;12.73;100.00;99872.88;5066134;28;20383;-60
2024/04/03 06:24:22;;;;;;;5.70;0.85;;;;;;;12.67;100.00;99874.28;5049635;28;20459;-59
2024/04/03 06:26:49;;;;;;;3.58;1.00;;;;;;;12.80;100.00;99873.09;5066314;28;20127;-59
2024/04/03 06:29:18;;;;;;;4.95;0.80;;;;;;;12.81;100.00;99882.22;5049464;28;20056;-56
2024/04/03 06:31:47;;;;;;;4.32;1.15;;;;;;;12.75;100.00;99886.34;5066260;28;20048;-55
2024/04/03 06:34:14;;;;;;;2.63;0.90;;;;;;;12.90;100.00;99880.13;5083226;28;20052;-59
2024/04/03 06:36:40;;;;;;;2.70;0.90;;;;;;;12.60;100.00;99885.13;5066164;28;20725;-60
2024/04/03 06:39:07;;;;;;;3.00;1.10;;;;;;;12.70;100.00;99887.41;5032846;28;20860;-58
2024/04/03 06:41:34;;;;;;;4.47;1.00;;;;;;;12.87;100.00;99887.13;5066359;28;20049;-64
2024/04/03 06:44:00;;;;;;;3.15;1.10;;;;;;;12.95;100.00;99891.75;5066222;28;20052;-64
2024/04/03 06:46:27;;;;;;;2.50;0.98;;;;;;;13.02;100.00;99891.19;5066236;28;20076;-64
2024/04/03 06:48:53;;;;;;;3.67;0.77;;;;;;;12.94;100.00;99894.81;5066566;28;20044;-65
2024/04/03 06:51:20;;;;;;;1.50;0.77;;;;;;;13.04;100.00;99892.41;5032934;28;20056;-65
2024/04/03 06:53:46;;;;;;;1.65;0.80;;;;;;;13.00;100.00;99897.03;5066510;28;20063;-64
2024/04/03 06:56:13;;;;;;;3.00;0.90;;;;;;;13.02;100.00;99905.78;5049397;28;20063;-65
2024/04/03 06:58:41;;;;;;;2.63;0.95;;;;;;;12.92;100.00;99903.47;5065815;28;20059;-65
2024/04/03 07:01:09;;;;;;;3.65;0.90;;;;;;;13.04;100.00;99906.25;5059148;28;20060;-65
2024/04/03 07:03:36;;;;;;;3.20;1.33;;;;;;;13.13;100.00;99904.16;5046226;28;20053;-65
2024/04/03 07:06:02;;;;;;;5.43;1.55;;;;;;;13.14;100.00;99907.72;5029434;28;20710;-65
2024/04/03 07:08:29;;;;;;;3.13;1.40;;;;;;;13.02;100.00;99905.00;5046041;28;20575;-65
2024/04/03 07:10:55;;;;;;;3.40;1.10;;;;;;;13.11;100.00;99911.19;5050067;28;20048;-65
2024/04/03 07:13:22;;;;;;;3.75;1.40;;;;;;;13.20;100.00;99914.59;5064186;28;20048;-63
2024/04/03 07:15:49;;;;;;;4.18;1.63;;;;;;;13.09;100.00;99916.28;5047622;28;20065;-64
2024/04/03 07:18:16;;;;;;;13.00;6.07;;;;;;;13.34;100.00;99915.84;5062953;28;20060;-63
2024/04/03 07:20:55;;;;;;;9.23;4.15;;;;;;;13.35;100.00;99916.66;5033480;28;20061;-61
2024/04/03 07:23:28;;;;;;;6.00;1.92;;;;;;;13.25;100.00;99914.38;5053474;28;20393;-63
2024/04/03 07:25:56;;;;;;;3.20;1.23;;;;;;;13.15;100.00;99921.19;5043078;28;20063;-60
2024/04/03 07:28:23;;;;;;;12.57;8.18;;;;;;;13.23;100.00;99916.69;5036068;28;20563;-57
2024/04/03 07:30:50;;;;;;;9.45;3.03;;;;;;;13.38;100.00;99914.00;5054550;28;20078;-57
2024/04/03 07:33:17;;;;;;;5.78;1.45;;;;;;;13.36;100.00;99918.25;5050616;28;20052;-58
2024/04/03 07:35:44;;;;;;;17.10;1.63;;;;;;;13.37;100.00;99922.66;5056515;28;20059;-54
2024/04/03 07:38:10;;;;;;;12.70;2.55;;;;;;;13.29;100.00;99921.63;5064193;28;20385;-57
2024/04/03 07:40:37;;;;;;;9.63;2.13;;;;;;;13.26;100.00;99927.03;5059181;28;20044;-58
2024/04/03 07:43:03;;;;;;;8.25;1.63;;;;;;;13.56;100.00;99931.09;5068791;28;20056;-59
2024/04/03 07:45:30;;;;;;;11.63;1.52;;;;;;;13.73;100.00;99932.75;5035481;28;20053;-58
2024/04/03 07:47:58;;;;;;;8.35;1.25;;;;;;;13.79;100.00;99934.09;5022870;28;20053;-58
2024/04/03 07:50:27;;;;;;;6.65;1.45;;;;;;;13.62;100.00;99951.00;5050162;28;20049;-60
2024/04/03 07:52:54;;;;;;;4.65;1.13;;;;;;;13.54;100.00;99947.25;5065199;28;20079;-58
2024/04/03 07:55:21;;;;;;;4.13;1.05;;;;;;;13.62;100.00;99957.34;5033250;28;20037;-61
2024/04/03 07:57:48;;;;;;;6.93;1.73;;;;;;;13.56;100.00;99951.25;5048851;28;20053;-63
2024/04/03 08:00:14;;;;;;;8.73;1.85;;;;;;;13.79;100.00;99957.03;5032533;28;20041;-64
2024/04/03 08:02:42;;;;;;;3.67;1.08;;;;;;;13.76;99.49;99954.97;5051139;28;20559;-63
2024/04/03 08:05:11;;;;;;;7.93;1.35;;;;;;;13.74;99.72;99956.50;5067810;28;20051;-62
2024/04/03 08:07:38;;;;;;;3.55;1.05;;;;;;;14.13;97.52;99955.59;5050815;28;20078;-64
2024/04/03 08:10:07;;;;;;;3.88;1.00;;;;;;;14.00;99.22;99952.09;5053869;28;20045;-63
2024/04/03 08:12:36;;;;;;;7.38;1.13;;;;;;;14.30;98.64;99950.56;5049430;28;20049;-65
2024/04/03 08:15:03;;;;;;;5.57;1.10;;;;;;;14.02;96.79;99946.19;5047332;28;20056;-64
2024/04/03 08:17:29;;;;;;;4.28;1.23;;;;;;;14.15;96.25;99961.59;5065549;28;20123;-59
2024/04/03 08:19:56;;;;;;;4.57;1.25;;;;;;;14.22;95.68;99959.00;5054731;28;20053;-60
2024/04/03 08:22:23;;;;;;;3.83;0.90;;;;;;;14.37;95.39;99955.47;5054906;28;20051;-59
2024/04/03 08:24:51;;;;;;;5.32;1.20;;;;;;;14.27;94.45;99956.00;5041307;28;20060;-60
2024/04/03 08:27:18;;;;;;;5.60;1.08;;;;;;;14.38;94.79;99957.09;5027694;28;20053;-60
2024/04/03 08:29:48;;;;;;;4.97;1.35;;;;;;;14.46;93.18;99958.88;5050853;28;20037;-59
2024/04/03 08:32:15;;;;;;;3.15;1.10;;;;;;;14.52;93.36;99957.44;5034852;28;20049;-64
2024/04/03 08:34:42;;;;;;;5.43;1.17;;;;;;;14.68;93.52;99968.53;5054796;28;20048;-64
2024/04/03 08:37:12;;;;;;;6.20;1.33;;;;;;;14.72;92.09;99972.16;5048975;28;20079;-64
2024/04/03 08:39:39;;;;;;;7.63;1.20;;;;;;;14.89;91.52;99971.81;5053279;28;20041;-65
2024/04/03 08:42:06;;;;;;;5.82;1.50;;;;;;;14.82;90.83;99975.22;5048430;28;20140;-65
2024/04/03 08:44:33;;;;;;;5.22;1.90;;;;;;;14.99;89.99;99977.63;5047290;28;20080;-65
2024/04/03 08:47:01;;;;;;;9.02;1.75;;;;;;;14.95;90.41;99979.50;5041177;28;20063;-65
2024/04/03 08:49:29;;;;;;;7.25;1.70;;;;;;;15.11;89.97;99983.06;5046994;28;20049;-65
2024/04/03 08:52:10;;;;;;;7.88;1.73;;;;;;;15.23;89.21;99968.25;5048084;28;20052;-65
2024/04/03 08:54:42;;;;;;;7.55;1.83;;;;;;;15.26;88.92;99968.31;5044186;28;20811;-65
2024/04/03 08:57:09;;;;;;;7.75;1.70;;;;;;;15.25;88.43;99963.16;5051066;28;20053;-61
2024/04/03 08:59:38;;;;;;;9.77;2.05;;;;;;;15.26;88.47;99975.84;5042607;28;20045;-62
2024/04/03 09:02:05;;;;;;;8.13;1.80;;;;;;;15.27;87.77;99983.78;5051654;28;20052;-61
2024/04/03 09:04:33;;;;;;;7.45;1.58;;;;;;;15.25;87.89;99980.59;5055118;28;20052;-59
2024/04/03 09:07:01;;;;;;;9.35;2.03;;;;;;;15.35;87.47;99985.56;5054038;28;20455;-59
2024/04/03 09:09:30;;;;;;;11.55;2.35;;;;;;;15.42;87.34;99985.78;5036070;28;20040;-60
2024/04/03 09:12:05;;;;;;;8.30;2.85;;;;;;;15.43;87.48;99987.38;5061654;28;20064;-60
2024/04/03 09:14:31;;;;;;;8.63;2.05;;;;;;;15.78;85.57;99984.53;5005778;28;20048;-60
2024/04/03 09:16:59;;;;;;;7.90;2.30;;;;;;;15.79;85.70;99973.06;5047758;28;20053;-61
2024/04/03 09:19:27;;;;;;;12.88;2.15;;;;;;;15.85;85.04;99979.13;5018291;28;20048;-61
2024/04/03 09:21:54;;;;;;;13.77;2.70;;;;;;;15.56;84.43;99988.03;5032475;28;20041;-60
2024/04/03 09:24:21;;;;;;;12.18;2.17;;;;;;;15.56;84.67;99990.81;5048075;28;20049;-58
2024/04/03 09:26:48;;;;;;;12.32;2.85;;;;;;;15.75;84.60;99976.94;5030132;28;20063;-60
2024/04/03 09:29:17;;;;;;;9.95;2.33;;;;;;;15.74;83.88;99978.13;5054897;28;20060;-63
2024/04/03 09:31:47;;;;;;;18.83;3.33;;;;;;;16.03;83.60;99996.13;5036560;28;20107;-64
2024/04/03 09:34:14;;;;;;;15.13;2.85;;;;;;;16.36;82.76;99986.06;5059135;28;20059;-60
2024/04/03 09:36:41;;;;;;;15.13;2.47;;;;;;;16.32;81.79;100001.88;5057054;28;20456;-66
2024/04/03 09:39:11;;;;;;;17.00;2.88;;;;;;;16.34;82.19;100005.09;5065798;28;20044;-65
2024/04/03 09:41:41;;;;;;;15.70;2.92;;;;;;;16.50;82.03;100003.03;5062285;28;20044;-64
2024/04/03 09:44:09;;;;;;;16.85;4.05;;;;;;;16.54;80.84;100006.69;5054037;28;20049;-67
2024/04/03 09:46:46;;;;;;;15.43;3.22;;;;;;;16.59;80.66;100008.34;5029104;28;20064;-65
2024/04/03 09:49:13;;;;;;;15.45;3.55;;;;;;;16.68;80.05;100011.69;5015221;28;20041;-64
2024/04/03 09:51:40;;;;;;;14.20;3.17;;;;;;;16.60;80.33;100007.97;5059090;28;20060;-66
2024/04/03 09:54:07;;;;;;;19.63;3.67;;;;;;;16.64;79.54;100016.38;5049518;28;20056;-64
2024/04/03 09:56:34;;;;;;;18.27;3.38;;;;;;;16.87;78.72;100011.63;5042276;28;20059;-63
2024/04/03 09:59:04;;;;;;;17.65;3.30;;;;;;;16.95;77.90;100006.94;5039349;28;20052;-60
2024/04/03 10:01:30;;;;;;;19.92;4.07;;;;;;;17.00;77.75;100018.56;5038646;28;20056;-61
2024/04/03 10:04:03;;;;;;;19.13;3.72;;;;;;;16.88;77.70;100018.78;5050526;28;20040;-61
2024/04/03 10:06:37;;;;;;;15.27;3.05;;;;;;;16.76;77.43;100021.75;5034636;28;20052;-60
2024/04/03 10:09:21;;;;;;;21.13;3.78;;;;;;;16.71;77.62;100020.09;5028107;28;20063;-60
2024/04/03 10:11:51;;;;;;;15.70;4.10;;;;;;;16.54;79.06;100011.44;5062940;28;20053;-60
2024/04/03 10:14:27;;;;;;;16.27;3.85;;;;;;;16.48;77.96;100019.28;5045946;28;20433;-60
2024/04/03 10:16:54;;;;;;;19.60;3.33;;;;;;;16.47;79.56;100022.44;5053755;28;20048;-60
2024/04/03 10:19:30;;;;;;;22.73;3.60;;;;;;;16.81;78.64;100025.03;5054245;28;20049;-60
2024/04/03 10:21:56;;;;;;;20.05;3.67;;;;;;;16.71;77.96;100024.84;5045219;28;20071;-61
2024/04/03 10:24:25;;;;;;;15.98;3.30;;;;;;;16.80;78.41;100022.63;5057766;28;20511;-64
2024/04/03 10:26:51;;;;;;;20.48;4.63;;;;;;;16.88;78.64;100023.56;5041627;28;20048;-59
2024/04/03 10:29:18;;;;;;;23.10;4.75;;;;;;;17.32;76.39;100028.25;5058847;28;20072;-61
2024/04/03 10:31:48;;;;;;;20.58;5.93;;;;;;;17.26;77.08;100015.03;5043066;28;20044;-62
2024/04/03 10:34:18;;;;;;;25.63;5.60;;;;;;;17.36;77.09;100017.97;5052118;28;20679;-61
2024/04/03 10:36:46;;;;;;;20.33;4.80;;;;;;;17.38;77.63;100020.38;5050437;28;20063;-62
2024/04/03 10:39:12;;;;;;;19.45;4.28;;;;;;;17.42;77.16;100019.22;5054629;28;20044;-59
2024/04/03 10:41:39;;;;;;;20.38;4.93;;;;;;;17.36;77.15;100026.31;5051412;28;20045;-59
2024/04/03 10:44:06;;;;;;;23.27;4.07;;;;;;;17.78;76.79;100026.13;5045196;28;20056;-60
2024/04/03 10:46:33;;;;;;;23.45;4.53;;;;;;;17.54;77.07;100023.81;5039031;28;20061;-59
2024/04/03 10:49:00;;;;;;;23.30;4.60;;;;;;;17.43;78.13;100034.78;5064980;28;20049;-59
2024/04/03 10:51:27;;;;;;;23.58;4.82;;;;;;;17.85;76.47;100021.44;5057026;28;20053;-59
2024/04/03 10:53:55;;;;;;;23.65;4.22;;;;;;;17.56;78.55;100033.38;5033358;28;20040;-61
2024/04/03 10:56:25;;;;;;;20.70;3.65;;;;;;;17.29;80.98;100034.56;5041457;28;20072;-60
2024/04/03 10:58:54;;;;;;;17.67;4.72;;;;;;;17.34;81.94;100031.44;5040412;28;20052;-60
2024/04/03 11:01:20;;;;;;;20.15;4.13;;;;;;;17.22;82.63;100023.31;5055306;28;20417;-64
2024/04/03 11:03:51;;;;;;;19.85;3.53;;;;;;;17.22;82.11;100033.63;5053699;28;20048;-65
2024/04/03 11:06:19;;;;;;;22.77;4.85;;;;;;;17.24;81.31;100023.75;5033143;28;20060;-65
2024/04/03 11:08:47;;;;;;;20.45;4.05;;;;;;;17.65;79.46;100024.75;5016754;28;20072;-64
2024/04/03 11:11:16;;;;;;;19.17;3.30;;;;;;;17.57;78.36;100021.06;5055329;28;20049;-65
2024/04/03 11:13:47;;;;;;;15.73;3.22;;;;;;;17.63;77.80;100030.69;5033392;28;20526;-67
2024/04/03 11:16:17;;;;;;;17.88;3.30;;;;;;;17.55;77.97;100026.22;5046231;28;20155;-66
2024/04/03 11:18:43;;;;;;;21.65;3.78;;;;;;;17.77;77.44;100028.09;5043172;28;20060;-67
2024/04/03 11:21:13;;;;;;;17.02;3.65;;;;;;;18.28;75.38;100025.53;5055746;28;20752;-67
2024/04/03 11:23:39;;;;;;;11.70;2.90;;;;;;;18.07;73.64;100033.66;5048972;28;20060;-66
2024/04/03 11:26:06;;;;;;;16.40;3.20;;;;;;;18.11;74.22;100026.16;5056642;28;20052;-65
2024/04/03 11:28:33;;;;;;;13.27;2.28;;;;;;;18.10;74.11;100026.53;5044958;28;20044;-66
2024/04/03 11:31:00;;;;;;;13.30;2.85;;;;;;;18.15;73.67;100026.97;5058638;28;20178;-67